Time;durP1;ratioP1;P1;durP2;ratioP2;P2;SDS_P1;SDS_P2;PMS_P1;PMS_P2;Temp;Humidity;BMP_temperature;BMP_pressure;BME280_temperature;BME280_humidity;BME280_pressure;Samples;Min_cycle;Max_cycle;Signal;HPM_P1;HPM_P2
2023/06/24 00:02:23;;;;;;;11.85;8.98;;;16.60;99.90;;;;;;4906344;29;20119;-78
2023/06/24 00:05:09;;;;;;;13.65;9.27;;;16.60;99.90;;;;;;4935247;29;20039;-78
2023/06/24 00:07:56;;;;;;;12.27;9.57;;;16.50;99.90;;;;;;4924218;29;20047;-78
2023/06/24 00:10:43;;;;;;;13.27;9.35;;;16.50;99.90;;;;;;4910802;29;20044;-78
2023/06/24 00:13:29;;;;;;;11.27;9.32;;;16.50;99.90;;;;;;4920164;29;20117;-78
2023/06/24 00:16:18;;;;;;;11.68;9.95;;;16.50;99.90;;;;;;4894668;29;20477;-78
2023/06/24 00:19:04;;;;;;;13.02;9.93;;;16.50;99.90;;;;;;4935617;28;20380;-78
2023/06/24 00:21:53;;;;;;;13.30;9.13;;;16.40;99.90;;;;;;4941634;28;20058;-78
2023/06/24 00:24:39;;;;;;;11.98;8.93;;;16.40;99.90;;;;;;4929382;29;20079;-78
2023/06/24 00:27:26;;;;;;;13.80;9.95;;;16.40;99.90;;;;;;4928563;28;20045;-78
2023/06/24 00:30:12;;;;;;;15.73;9.55;;;16.30;99.90;;;;;;4928659;29;20039;-78
2023/06/24 00:32:58;;;;;;;12.02;9.82;;;16.30;99.90;;;;;;4941416;29;20488;-78
2023/06/24 00:35:44;;;;;;;15.52;10.18;;;16.30;99.90;;;;;;4936592;28;20130;-78
2023/06/24 00:38:32;;;;;;;15.73;10.27;;;16.20;99.90;;;;;;4941684;29;20039;-77
2023/06/24 00:41:18;;;;;;;14.02;9.25;;;16.20;99.90;;;;;;4942014;29;20050;-78
2023/06/24 00:44:04;;;;;;;16.20;9.65;;;16.20;99.90;;;;;;4915897;29;20035;-78
2023/06/24 00:46:50;;;;;;;13.07;9.90;;;16.20;99.90;;;;;;4919681;29;20043;-78
2023/06/24 00:49:36;;;;;;;15.27;9.75;;;16.10;99.90;;;;;;4935940;29;20044;-78
2023/06/24 00:52:22;;;;;;;14.52;9.85;;;16.10;99.90;;;;;;4914489;29;20048;-78
2023/06/24 00:55:11;;;;;;;14.05;9.02;;;16.00;99.90;;;;;;4942377;29;20105;-78
2023/06/24 00:57:59;;;;;;;14.75;10.25;;;16.00;99.90;;;;;;4942187;29;20480;-78
2023/06/24 01:00:45;;;;;;;13.20;9.98;;;16.00;99.90;;;;;;4924297;29;20047;-78
2023/06/24 01:03:31;;;;;;;14.25;9.98;;;16.00;99.90;;;;;;4939531;29;20683;-77
2023/06/24 01:06:17;;;;;;;15.63;9.88;;;16.00;99.90;;;;;;4926208;29;20081;-77
2023/06/24 01:09:04;;;;;;;14.30;9.63;;;16.00;99.90;;;;;;4929134;29;20965;-77
2023/06/24 01:11:51;;;;;;;14.18;10.00;;;16.00;99.90;;;;;;4926886;29;20556;-78
2023/06/24 01:14:37;;;;;;;13.82;9.57;;;16.00;99.90;;;;;;4941888;29;20058;-78
2023/06/24 01:17:24;;;;;;;17.20;9.88;;;16.00;99.90;;;;;;4928550;28;20570;-78
2023/06/24 01:20:30;;;;;;;12.57;9.77;;;15.90;99.90;;;;;;4915045;29;20097;-78
2023/06/24 01:23:34;;;;;;;13.02;9.57;;;15.80;99.90;;;;;;4928888;29;20050;-78
2023/06/24 01:26:30;;;;;;;16.13;10.27;;;15.80;99.90;;;;;;4954755;29;20047;-78
2023/06/24 01:29:51;;;;;;;14.32;9.60;;;15.80;99.90;;;;;;4940983;29;20057;-78
2023/06/24 01:32:42;;;;;;;15.43;10.13;;;15.80;99.90;;;;;;4923781;29;20472;-78
2023/06/24 01:35:30;;;;;;;12.32;9.85;;;15.70;99.90;;;;;;4941447;28;20051;-77
2023/06/24 01:38:37;;;;;;;13.10;9.75;;;15.70;99.90;;;;;;4934620;29;20111;-77
2023/06/24 01:41:24;;;;;;;16.13;10.65;;;15.60;99.90;;;;;;4923031;29;20050;-78
2023/06/24 01:44:13;;;;;;;15.95;10.63;;;15.60;99.90;;;;;;4935053;29;20050;-77
2023/06/24 01:46:59;;;;;;;16.15;12.05;;;15.50;99.90;;;;;;4942473;29;20039;-78
2023/06/24 01:49:45;;;;;;;14.23;10.50;;;15.50;99.90;;;;;;4946937;28;20043;-78
2023/06/24 01:52:31;;;;;;;16.38;10.73;;;15.50;99.90;;;;;;4924750;28;20047;-78
2023/06/24 01:55:19;;;;;;;12.85;10.32;;;15.50;99.90;;;;;;4943121;28;20082;-78
2023/06/24 01:58:06;;;;;;;13.38;10.23;;;15.50;99.90;;;;;;4936044;29;20058;-77
2023/06/24 02:00:52;;;;;;;14.43;10.63;;;15.40;99.90;;;;;;4941946;28;20046;-77
2023/06/24 02:03:38;;;;;;;15.48;10.48;;;15.40;99.90;;;;;;4937384;29;20051;-78
2023/06/24 02:06:24;;;;;;;13.48;10.77;;;15.40;99.90;;;;;;4949866;29;20105;-78
2023/06/24 02:09:10;;;;;;;13.57;10.65;;;15.40;99.90;;;;;;4929292;29;20197;-77
2023/06/24 02:11:57;;;;;;;15.93;11.40;;;15.40;99.90;;;;;;4927082;29;20090;-78
2023/06/24 02:14:43;;;;;;;16.55;11.27;;;15.30;99.90;;;;;;4941921;29;20043;-78
2023/06/24 02:17:29;;;;;;;15.32;11.02;;;15.30;99.90;;;;;;4926288;29;20476;-78
2023/06/24 02:20:16;;;;;;;14.30;10.38;;;15.20;99.90;;;;;;4922954;29;20059;-78
2023/06/24 02:23:01;;;;;;;15.25;11.35;;;15.20;99.90;;;;;;4935667;28;20495;-78
2023/06/24 02:25:47;;;;;;;15.40;11.55;;;15.20;99.90;;;;;;4915983;28;20039;-78
2023/06/24 02:28:33;;;;;;;16.38;10.75;;;15.20;99.90;;;;;;4919649;29;20039;-78
2023/06/24 02:31:19;;;;;;;16.73;11.18;;;15.20;99.90;;;;;;4942002;29;20039;-78
2023/06/24 02:34:05;;;;;;;12.77;10.48;;;15.20;99.90;;;;;;4943883;29;20110;-78
2023/06/24 02:36:51;;;;;;;14.02;10.88;;;15.20;99.90;;;;;;4918064;29;20059;-78
2023/06/24 02:39:43;;;;;;;16.10;10.52;;;15.20;99.90;;;;;;4936406;29;20049;-78
2023/06/24 02:42:29;;;;;;;15.27;11.38;;;15.20;99.90;;;;;;4956776;29;20420;-78
2023/06/24 02:45:15;;;;;;;13.15;10.52;;;15.20;99.90;;;;;;4945243;29;20081;-78
2023/06/24 02:48:02;;;;;;;15.82;11.13;;;15.20;99.90;;;;;;4926680;29;20113;-77
2023/06/24 02:50:48;;;;;;;14.65;10.68;;;15.20;99.90;;;;;;4931886;29;20038;-77
2023/06/24 02:53:34;;;;;;;15.18;10.77;;;15.20;99.90;;;;;;4929316;29;20054;-77
2023/06/24 02:56:20;;;;;;;17.55;11.30;;;15.20;99.90;;;;;;4931103;29;20039;-78
2023/06/24 02:59:06;;;;;;;17.40;12.18;;;15.20;99.90;;;;;;4928385;29;20042;-78
2023/06/24 03:01:52;;;;;;;15.20;12.02;;;15.10;99.90;;;;;;4929163;29;20066;-78
2023/06/24 03:04:39;;;;;;;13.48;11.13;;;15.10;99.90;;;;;;4926124;29;20747;-78
2023/06/24 03:07:25;;;;;;;17.67;11.40;;;15.10;99.90;;;;;;4945813;29;20043;-78
2023/06/24 03:10:11;;;;;;;12.60;10.68;;;15.10;99.90;;;;;;4941772;29;20039;-78
2023/06/24 03:12:57;;;;;;;17.45;11.50;;;15.10;99.90;;;;;;4932115;29;20738;-78
2023/06/24 03:15:43;;;;;;;16.05;11.23;;;15.10;99.90;;;;;;4925037;29;20393;-78
2023/06/24 03:18:32;;;;;;;15.48;11.85;;;15.10;99.90;;;;;;4957208;29;20072;-78
2023/06/24 03:21:18;;;;;;;15.32;11.13;;;15.10;99.90;;;;;;4922441;29;20478;-78
2023/06/24 03:24:04;;;;;;;13.73;11.05;;;15.10;99.90;;;;;;4940083;29;20070;-78
2023/06/24 03:26:56;;;;;;;15.90;10.63;;;15.00;99.90;;;;;;4924260;29;20126;-77
2023/06/24 03:29:43;;;;;;;12.80;11.00;;;15.00;99.90;;;;;;4943909;29;20125;-78
2023/06/24 03:32:29;;;;;;;17.13;12.18;;;14.90;99.90;;;;;;4930678;29;20035;-77
2023/06/24 03:35:15;;;;;;;19.75;11.38;;;14.90;99.90;;;;;;4928716;28;20043;-77
2023/06/24 03:38:01;;;;;;;15.65;11.43;;;14.90;99.90;;;;;;4943633;29;20142;-78
2023/06/24 03:40:47;;;;;;;15.05;10.70;;;14.90;99.90;;;;;;4928470;29;20081;-78
2023/06/24 03:43:34;;;;;;;16.23;11.65;;;14.90;99.90;;;;;;4937021;29;20058;-78
2023/06/24 03:46:20;;;;;;;14.73;11.57;;;14.90;99.90;;;;;;4928537;29;20567;-78
2023/06/24 03:49:06;;;;;;;16.73;11.45;;;14.90;99.90;;;;;;4943945;29;20725;-77
2023/06/24 03:51:52;;;;;;;14.32;11.90;;;14.90;99.90;;;;;;4945370;28;20066;-78
2023/06/24 03:54:39;;;;;;;13.63;11.15;;;14.90;99.90;;;;;;4941756;29;20075;-78
2023/06/24 03:57:26;;;;;;;21.70;12.02;;;14.90;99.90;;;;;;4929057;29;20650;-78
2023/06/24 04:00:15;;;;;;;15.77;11.60;;;14.90;99.90;;;;;;4944006;29;20071;-78
2023/06/24 04:03:01;;;;;;;17.13;11.77;;;14.90;99.90;;;;;;4943416;29;20043;-78
2023/06/24 04:05:47;;;;;;;16.27;11.68;;;14.90;99.90;;;;;;4930184;29;20049;-78
2023/06/24 04:08:33;;;;;;;14.10;10.80;;;15.00;99.90;;;;;;4941352;29;20043;-78
2023/06/24 04:11:19;;;;;;;17.35;11.55;;;15.00;99.90;;;;;;4937353;29;20444;-78
2023/06/24 04:14:06;;;;;;;15.18;11.25;;;15.00;99.90;;;;;;4926424;29;20195;-78
2023/06/24 04:16:52;;;;;;;18.48;11.40;;;15.00;99.90;;;;;;4925147;28;20050;-77
2023/06/24 04:19:39;;;;;;;17.98;12.30;;;15.00;99.90;;;;;;4929913;28;20043;-77
2023/06/24 04:22:25;;;;;;;14.93;11.25;;;15.00;99.90;;;;;;4942666;29;20043;-77
2023/06/24 04:25:11;;;;;;;22.80;13.02;;;15.00;99.90;;;;;;4924523;29;20087;-77
2023/06/24 04:27:58;;;;;;;15.10;11.43;;;15.00;99.90;;;;;;4938447;29;20146;-77
2023/06/24 04:30:43;;;;;;;14.18;11.25;;;15.10;99.90;;;;;;4942416;29;20623;-77
2023/06/24 04:33:29;;;;;;;18.13;12.50;;;15.20;99.90;;;;;;4935936;29;20050;-77
2023/06/24 04:36:16;;;;;;;20.15;12.52;;;15.10;99.90;;;;;;4926855;29;20058;-77
2023/06/24 04:39:02;;;;;;;16.55;11.98;;;15.20;99.90;;;;;;4941466;29;20754;-77
2023/06/24 04:41:48;;;;;;;15.90;12.10;;;15.20;99.90;;;;;;4942105;29;20042;-78
2023/06/24 04:44:34;;;;;;;16.38;11.77;;;15.20;99.90;;;;;;4925822;29;20051;-77
2023/06/24 04:47:20;;;;;;;16.05;11.70;;;15.30;99.90;;;;;;4941369;28;20054;-77
2023/06/24 04:50:09;;;;;;;16.95;11.63;;;15.30;99.90;;;;;;4921939;29;20465;-78
2023/06/24 04:52:56;;;;;;;16.65;11.50;;;15.40;99.90;;;;;;4928857;29;20050;-77
2023/06/24 04:55:42;;;;;;;17.27;11.98;;;15.40;99.90;;;;;;4935684;29;20047;-77
2023/06/24 04:58:28;;;;;;;14.27;11.25;;;15.50;99.90;;;;;;4928621;29;20047;-77
2023/06/24 05:01:14;;;;;;;18.02;11.50;;;15.50;99.90;;;;;;4940798;29;20043;-77
2023/06/24 05:04:00;;;;;;;18.45;10.80;;;15.50;99.90;;;;;;4919050;29;20473;-77
2023/06/24 05:06:46;;;;;;;14.02;10.52;;;15.50;99.90;;;;;;4939108;29;20089;-77
2023/06/24 05:09:32;;;;;;;14.57;9.77;;;15.60;99.90;;;;;;4928673;29;20047;-77
2023/06/24 05:12:18;;;;;;;15.07;10.10;;;15.60;99.90;;;;;;4923415;29;20050;-78
2023/06/24 05:15:04;;;;;;;14.77;10.20;;;15.50;99.90;;;;;;4929487;29;20054;-78
2023/06/24 05:17:50;;;;;;;14.38;9.60;;;15.60;99.90;;;;;;4909966;29;20130;-77
2023/06/24 05:20:36;;;;;;;14.70;10.30;;;15.60;99.90;;;;;;4915465;29;20482;-77
2023/06/24 05:23:22;;;;;;;13.40;9.55;;;15.70;99.90;;;;;;4925807;29;20054;-78
2023/06/24 05:26:08;;;;;;;14.18;9.48;;;15.70;99.90;;;;;;4929854;29;20035;-78
2023/06/24 05:28:54;;;;;;;13.93;10.10;;;15.80;99.90;;;;;;4916126;29;20039;-77
2023/06/24 05:31:41;;;;;;;12.57;10.07;;;15.80;99.90;;;;;;4929286;29;20044;-77
2023/06/24 05:34:27;;;;;;;13.85;9.80;;;15.80;99.90;;;;;;4938777;29;20047;-77
2023/06/24 05:37:13;;;;;;;12.55;9.95;;;15.90;99.90;;;;;;4928352;29;20047;-77
2023/06/24 05:40:01;;;;;;;15.20;10.38;;;15.90;99.90;;;;;;4935512;29;20110;-77
2023/06/24 05:42:47;;;;;;;18.13;9.85;;;16.00;99.90;;;;;;4927801;28;20134;-77
2023/06/24 05:45:33;;;;;;;13.55;9.43;;;16.00;99.90;;;;;;4939611;29;20122;-77
2023/06/24 05:48:19;;;;;;;14.30;10.13;;;16.10;99.90;;;;;;4943946;28;20353;-77
2023/06/24 05:51:05;;;;;;;14.32;10.10;;;16.10;99.90;;;;;;4942248;29;20043;-79
2023/06/24 05:53:51;;;;;;;19.38;10.77;;;16.10;99.90;;;;;;4929928;29;20039;-79
2023/06/24 05:56:37;;;;;;;15.38;10.68;;;16.20;99.90;;;;;;4931336;29;20098;-79
2023/06/24 05:59:23;;;;;;;15.32;10.15;;;16.20;99.90;;;;;;4943103;29;20142;-81
2023/06/24 06:02:12;;;;;;;14.25;11.35;;;16.30;99.90;;;;;;4945439;29;20111;-81
2023/06/24 06:04:58;;;;;;;15.43;10.05;;;16.30;99.90;;;;;;4945914;29;20589;-80
2023/06/24 06:07:44;;;;;;;13.15;9.90;;;16.30;99.90;;;;;;4949628;29;20068;-80
2023/06/24 06:10:33;;;;;;;15.68;11.25;;;16.40;99.90;;;;;;4937609;29;20053;-79
2023/06/24 06:13:19;;;;;;;13.65;10.45;;;16.40;99.90;;;;;;4947160;29;20372;-79
2023/06/24 06:16:05;;;;;;;16.20;10.55;;;16.50;99.90;;;;;;4934279;29;20111;-79
2023/06/24 06:18:51;;;;;;;17.60;11.70;;;16.60;99.90;;;;;;4919057;29;20090;-80
2023/06/24 06:21:37;;;;;;;15.48;10.80;;;16.50;99.90;;;;;;4936070;29;20070;-79
2023/06/24 06:24:23;;;;;;;13.55;9.75;;;16.60;99.90;;;;;;4939928;28;20572;-79
2023/06/24 06:27:10;;;;;;;16.50;10.18;;;16.60;99.90;;;;;;4918500;29;20507;-79
2023/06/24 06:29:56;;;;;;;17.55;10.27;;;16.70;99.90;;;;;;4907418;29;20055;-79
2023/06/24 06:32:42;;;;;;;13.80;10.00;;;16.80;99.90;;;;;;4895868;29;20039;-79
2023/06/24 06:35:31;;;;;;;15.05;10.85;;;16.80;99.90;;;;;;4930949;29;20065;-79
2023/06/24 06:38:16;;;;;;;12.25;10.35;;;16.90;99.90;;;;;;4948763;29;20508;-79
2023/06/24 06:41:02;;;;;;;17.33;9.88;;;16.80;99.90;;;;;;4944717;29;20038;-79
2023/06/24 06:43:48;;;;;;;14.77;10.48;;;16.90;99.90;;;;;;4939486;29;20044;-79
2023/06/24 06:46:34;;;;;;;13.43;10.05;;;16.90;99.90;;;;;;4938867;29;20082;-79
2023/06/24 06:49:22;;;;;;;18.08;10.55;;;17.00;99.90;;;;;;4954399;29;20043;-79
2023/06/24 06:52:08;;;;;;;13.90;10.23;;;17.00;99.90;;;;;;4947704;29;20039;-79
2023/06/24 06:54:55;;;;;;;16.73;11.20;;;17.00;99.90;;;;;;4958106;29;20055;-79
2023/06/24 06:57:41;;;;;;;18.33;10.27;;;17.10;99.90;;;;;;4936040;29;20136;-80
2023/06/24 07:00:27;;;;;;;15.50;9.77;;;17.10;99.90;;;;;;4938505;29;20027;-81
2023/06/24 07:03:13;;;;;;;11.88;8.85;;;17.20;99.90;;;;;;4945728;29;20127;-80
2023/06/24 07:05:59;;;;;;;23.33;9.20;;;17.20;99.90;;;;;;4957682;28;20129;-79
2023/06/24 07:08:49;;;;;;;21.42;9.38;;;17.30;99.90;;;;;;4946660;29;20545;-79
2023/06/24 07:11:35;;;;;;;15.35;9.85;;;17.30;99.90;;;;;;4955697;29;20051;-79
2023/06/24 07:14:22;;;;;;;14.68;8.95;;;17.40;99.90;;;;;;4931110;28;20043;-79
2023/06/24 07:17:08;;;;;;;11.43;8.68;;;17.40;99.90;;;;;;4930712;29;20108;-79
2023/06/24 07:19:57;;;;;;;11.10;9.25;;;17.50;99.90;;;;;;4932734;29;20483;-79
2023/06/24 07:22:43;;;;;;;10.75;7.75;;;17.50;99.90;;;;;;4922152;29;20122;-79
2023/06/24 07:25:29;;;;;;;13.13;8.15;;;17.50;99.90;;;;;;4943170;29;20038;-79
2023/06/24 07:28:15;;;;;;;11.95;7.75;;;17.60;99.90;;;;;;4911185;29;20059;-75
2023/06/24 07:31:01;;;;;;;13.57;8.50;;;17.70;99.90;;;;;;4939900;29;20073;-75
2023/06/24 07:33:47;;;;;;;11.13;7.20;;;17.70;99.90;;;;;;4927272;29;20141;-77
2023/06/24 07:36:33;;;;;;;11.73;7.75;;;17.70;99.90;;;;;;4946193;29;20138;-76
2023/06/24 07:39:19;;;;;;;12.55;8.18;;;17.70;99.90;;;;;;4927833;29;20094;-77
2023/06/24 07:42:05;;;;;;;12.10;7.13;;;17.80;99.90;;;;;;4956810;29;20046;-76
2023/06/24 07:44:51;;;;;;;10.75;7.28;;;17.80;99.90;;;;;;4944414;29;20142;-76
2023/06/24 07:47:37;;;;;;;9.80;6.85;;;17.80;99.90;;;;;;4947236;29;20115;-76
2023/06/24 07:50:25;;;;;;;10.55;6.43;;;17.90;99.90;;;;;;4940817;29;20070;-77
2023/06/24 07:53:11;;;;;;;12.68;7.40;;;18.00;99.90;;;;;;4900058;29;20062;-77
2023/06/24 07:55:57;;;;;;;14.20;7.43;;;18.00;99.90;;;;;;4924451;29;20052;-77
2023/06/24 07:58:43;;;;;;;12.10;6.88;;;18.10;99.90;;;;;;4925693;29;20078;-77
2023/06/24 08:01:29;;;;;;;10.02;6.85;;;18.10;99.90;;;;;;4936556;29;20046;-77
2023/06/24 08:04:15;;;;;;;12.43;7.97;;;18.10;99.90;;;;;;4913274;29;20047;-77
2023/06/24 08:07:03;;;;;;;11.57;6.70;;;18.20;99.90;;;;;;4902251;29;20074;-77
2023/06/24 08:09:49;;;;;;;10.23;6.03;;;18.30;99.90;;;;;;4926969;29;20130;-77
2023/06/24 08:12:35;;;;;;;11.32;6.88;;;18.30;99.90;;;;;;4924869;29;20039;-76
2023/06/24 08:15:21;;;;;;;13.82;7.47;;;18.30;99.90;;;;;;4923073;29;20054;-77
2023/06/24 08:18:07;;;;;;;8.70;5.97;;;18.30;99.90;;;;;;4917803;29;20047;-76
2023/06/24 08:20:53;;;;;;;8.15;5.57;;;18.40;99.90;;;;;;4930878;29;20635;-78
2023/06/24 08:23:39;;;;;;;8.77;5.60;;;18.40;99.90;;;;;;4918025;29;20070;-77
2023/06/24 08:26:25;;;;;;;9.85;6.50;;;18.40;99.90;;;;;;4913760;29;20047;-77
2023/06/24 08:29:11;;;;;;;10.57;6.53;;;18.50;99.90;;;;;;4923822;29;20215;-78
2023/06/24 08:31:57;;;;;;;9.80;5.75;;;18.50;99.90;;;;;;4925786;29;20496;-78
2023/06/24 08:34:42;;;;;;;10.00;5.68;;;18.60;99.90;;;;;;4915572;29;20480;-78
2023/06/24 08:37:28;;;;;;;10.27;5.28;;;18.60;99.90;;;;;;4930077;29;20058;-79
2023/06/24 08:40:14;;;;;;;8.95;5.50;;;18.60;99.90;;;;;;4937418;29;20390;-79
2023/06/24 08:43:00;;;;;;;8.18;5.20;;;18.70;99.90;;;;;;4900451;29;20036;-79
2023/06/24 08:45:46;;;;;;;8.55;4.95;;;18.70;99.90;;;;;;4900427;29;20040;-80
2023/06/24 08:48:32;;;;;;;7.25;4.63;;;18.80;99.90;;;;;;4914157;29;20137;-80
2023/06/24 08:51:19;;;;;;;7.70;5.05;;;18.90;99.90;;;;;;4923091;29;20039;-79
2023/06/24 08:54:06;;;;;;;6.35;4.65;;;18.80;99.90;;;;;;4913032;29;20074;-81
2023/06/24 08:56:53;;;;;;;6.90;5.00;;;19.00;99.90;;;;;;4939629;29;20043;-80
2023/06/24 08:59:38;;;;;;;10.60;5.10;;;19.00;99.90;;;;;;4912688;29;20043;-81
2023/06/24 09:02:24;;;;;;;7.00;4.65;;;19.10;99.90;;;;;;4912675;29;20047;-81
2023/06/24 09:05:10;;;;;;;8.30;5.50;;;19.20;99.90;;;;;;4916991;29;20042;-80
2023/06/24 09:07:56;;;;;;;6.38;4.72;;;19.30;99.90;;;;;;4938518;29;20071;-80
2023/06/24 09:10:42;;;;;;;8.50;4.53;;;19.30;99.90;;;;;;4925982;29;20035;-79
2023/06/24 09:13:35;;;;;;;8.40;4.18;;;19.40;99.90;;;;;;4930414;29;20043;-79
2023/06/24 09:16:21;;;;;;;10.02;4.75;;;19.40;99.90;;;;;;4912447;29;20126;-81
2023/06/24 09:19:07;;;;;;;7.88;5.30;;;19.40;99.90;;;;;;4937991;29;20044;-80
2023/06/24 09:21:53;;;;;;;6.20;4.80;;;19.50;99.90;;;;;;4928161;29;20039;-80
2023/06/24 09:24:40;;;;;;;7.03;4.65;;;19.60;99.90;;;;;;4938818;29;20071;-80
2023/06/24 09:27:26;;;;;;;10.40;5.35;;;19.70;99.90;;;;;;4913518;29;20044;-81
2023/06/24 09:30:22;;;;;;;6.70;5.43;;;19.70;99.90;;;;;;4931526;29;20043;-80
2023/06/24 09:33:12;;;;;;;8.70;5.55;;;19.80;99.90;;;;;;4931412;29;20046;-80
2023/06/24 09:35:58;;;;;;;7.57;5.00;;;19.80;99.90;;;;;;4906636;29;20515;-79
2023/06/24 09:38:48;;;;;;;10.73;4.70;;;19.90;99.90;;;;;;4927546;29;20040;-80
2023/06/24 09:41:41;;;;;;;9.27;4.68;;;20.00;99.90;;;;;;4919636;29;20472;-81
2023/06/24 09:44:28;;;;;;;8.27;4.43;;;20.10;99.90;;;;;;4925320;29;20190;-80
2023/06/24 09:47:14;;;;;;;7.25;4.18;;;20.10;99.90;;;;;;4915444;29;20035;-81
2023/06/24 09:50:00;;;;;;;5.30;4.00;;;20.10;99.90;;;;;;4926348;29;20039;-80
2023/06/24 09:52:46;;;;;;;7.22;4.95;;;20.20;99.90;;;;;;4925833;29;20107;-80
2023/06/24 09:55:32;;;;;;;7.22;4.35;;;20.30;99.90;;;;;;4911952;29;20054;-80
2023/06/24 09:58:18;;;;;;;6.70;4.13;;;20.40;99.90;;;;;;4923553;29;20043;-81
2023/06/24 10:01:05;;;;;;;8.68;4.50;;;20.40;99.90;;;;;;4906101;29;20119;-81
2023/06/24 10:03:51;;;;;;;6.05;4.47;;;20.60;99.90;;;;;;4880646;29;20637;-81
2023/06/24 10:06:36;;;;;;;6.95;4.07;;;20.60;99.90;;;;;;4906068;29;20040;-80
2023/06/24 10:09:22;;;;;;;7.18;4.07;;;20.90;99.90;;;;;;4894172;29;20036;-80
2023/06/24 10:12:09;;;;;;;5.68;3.83;;;20.90;99.90;;;;;;4905836;29;20069;-79
2023/06/24 10:14:55;;;;;;;8.45;4.20;;;20.90;99.90;;;;;;4908911;29;20043;-80
2023/06/24 10:17:41;;;;;;;8.18;4.50;;;21.00;99.90;;;;;;4911751;29;20044;-81
2023/06/24 10:20:27;;;;;;;5.55;3.83;;;20.90;99.90;;;;;;4894146;29;20056;-80
2023/06/24 10:23:13;;;;;;;6.82;4.32;;;21.10;99.90;;;;;;4919349;29;20119;-81
2023/06/24 10:25:59;;;;;;;8.15;4.63;;;21.20;99.90;;;;;;4893859;29;20047;-81
2023/06/24 10:29:20;;;;;;;8.48;4.60;;;21.30;99.90;;;;;;4895338;29;20438;-81
2023/06/24 10:32:07;;;;;;;7.22;4.15;;;21.30;99.90;;;;;;4883545;29;20197;-81
2023/06/24 10:34:57;;;;;;;7.15;4.18;;;21.40;99.90;;;;;;4925229;29;20373;-81
2023/06/24 10:37:53;;;;;;;10.18;3.90;;;21.50;99.90;;;;;;4893074;29;20440;-80
2023/06/24 10:40:40;;;;;;;7.25;3.78;;;21.70;99.90;;;;;;4895073;29;20040;-80
2023/06/24 10:43:27;;;;;;;8.15;4.57;;;21.80;99.90;;;;;;4896317;29;20048;-80
2023/06/24 10:46:15;;;;;;;7.97;4.28;;;21.90;99.90;;;;;;4908325;29;20087;-80
2023/06/24 10:49:01;;;;;;;;;;;22.00;99.90;;;;;;4912933;29;20046;-80
2023/06/24 10:51:47;;;;;;;7.28;4.45;;;22.10;99.90;;;;;;4934968;29;19998;-80
2023/06/24 10:54:33;;;;;;;7.55;4.25;;;22.00;99.90;;;;;;4919819;29;20044;-79
2023/06/24 10:57:26;;;;;;;7.43;4.30;;;22.20;99.90;;;;;;4922161;29;20203;-80
2023/06/24 11:00:15;;;;;;;6.50;4.05;;;22.20;99.60;;;;;;4917522;29;20070;-79
2023/06/24 11:03:11;;;;;;;5.40;4.00;;;22.20;99.50;;;;;;4906269;29;20044;-81
2023/06/24 11:05:57;;;;;;;7.20;4.47;;;22.30;99.90;;;;;;4913733;29;20048;-80
2023/06/24 11:08:45;;;;;;;7.28;4.45;;;22.40;99.90;;;;;;4906317;29;20054;-80
2023/06/24 11:11:31;;;;;;;7.30;4.32;;;22.60;99.90;;;;;;4898742;29;20043;-80
2023/06/24 11:14:17;;;;;;;6.97;3.70;;;22.70;99.10;;;;;;4906156;29;20104;-80
2023/06/24 11:17:04;;;;;;;7.80;3.90;;;22.80;99.90;;;;;;4908219;29;20493;-79
2023/06/24 11:19:50;;;;;;;7.30;3.80;;;22.90;99.90;;;;;;4918503;29;20092;-80
2023/06/24 11:22:37;;;;;;;7.05;4.15;;;23.00;99.10;;;;;;4905889;29;20036;-81
2023/06/24 11:25:23;;;;;;;5.75;4.03;;;23.00;99.00;;;;;;4919418;29;20040;-80
2023/06/24 11:28:27;;;;;;;6.75;4.07;;;22.90;99.90;;;;;;4905887;29;20044;-80
2023/06/24 11:31:14;;;;;;;6.78;4.50;;;23.00;99.60;;;;;;4899017;29;20047;-80
2023/06/24 11:34:00;;;;;;;6.88;4.20;;;23.10;98.30;;;;;;4905772;29;20362;-80
2023/06/24 11:36:46;;;;;;;7.88;4.43;;;23.10;97.90;;;;;;4926780;29;20132;-80
2023/06/24 11:39:35;;;;;;;5.45;3.78;;;23.10;98.10;;;;;;4902040;29;20039;-81
2023/06/24 11:42:22;;;;;;;7.38;4.22;;;23.10;98.20;;;;;;4907718;29;20058;-80
2023/06/24 11:45:09;;;;;;;6.27;4.17;;;23.20;96.60;;;;;;4904520;29;20067;-80
2023/06/24 11:48:04;;;;;;;6.80;4.70;;;23.20;98.50;;;;;;4905791;29;20044;-81
2023/06/24 11:50:54;;;;;;;8.25;4.43;;;23.30;98.10;;;;;;4897939;29;20492;-80
2023/06/24 11:53:44;;;;;;;12.32;4.65;;;23.50;99.20;;;;;;4906288;29;20054;-80
2023/06/24 11:56:40;;;;;;;5.53;4.05;;;23.60;97.80;;;;;;4907881;29;20617;-81
2023/06/24 11:59:26;;;;;;;6.90;4.00;;;23.80;97.80;;;;;;4905351;29;20048;-81
2023/06/24 12:02:13;;;;;;;7.38;3.95;;;23.90;97.50;;;;;;4891652;29;20044;-81
2023/06/24 12:05:05;;;;;;;8.35;4.28;;;23.90;97.60;;;;;;4919014;29;20044;-81
2023/06/24 12:07:54;;;;;;;6.18;4.00;;;23.90;97.20;;;;;;4933143;29;20058;-80
2023/06/24 12:10:41;;;;;;;6.95;3.92;;;24.00;97.00;;;;;;4905950;29;20043;-81
2023/06/24 12:13:27;;;;;;;7.38;4.15;;;24.00;97.10;;;;;;4912752;29;20059;-80
2023/06/24 12:16:13;;;;;;;5.70;3.78;;;24.00;96.20;;;;;;4895085;29;20469;-80
2023/06/24 12:18:59;;;;;;;7.53;4.05;;;24.10;97.50;;;;;;4920730;29;20134;-80
2023/06/24 12:21:45;;;;;;;6.22;3.60;;;24.20;96.00;;;;;;4904976;29;20095;-80
2023/06/24 12:24:30;;;;;;;5.78;3.63;;;24.30;95.90;;;;;;4902828;29;20036;-79
2023/06/24 12:27:16;;;;;;;5.57;3.88;;;24.40;95.40;;;;;;4922546;29;20058;-78
2023/06/24 12:30:05;;;;;;;6.85;3.80;;;24.40;95.70;;;;;;4907658;29;20472;-79
2023/06/24 12:32:57;;;;;;;4.68;3.50;;;24.50;95.80;;;;;;4923844;29;20047;-79
2023/06/24 12:35:45;;;;;;;7.55;4.38;;;24.60;95.80;;;;;;4909299;29;20452;-79
2023/06/24 12:38:31;;;;;;;6.53;3.50;;;24.50;95.10;;;;;;4904112;29;20565;-79
2023/06/24 12:41:18;;;;;;;7.28;4.20;;;24.60;96.60;;;;;;4894639;29;20163;-79
2023/06/24 12:44:04;;;;;;;6.75;3.67;;;24.90;95.30;;;;;;4909995;29;20050;-79
2023/06/24 12:46:50;;;;;;;6.25;3.83;;;24.80;96.00;;;;;;4902358;29;20055;-79
2023/06/24 12:49:36;;;;;;;8.52;4.10;;;24.90;95.10;;;;;;4893219;29;20058;-78
2023/06/24 12:52:22;;;;;;;6.13;3.55;;;24.90;94.90;;;;;;4923492;29;20044;-79
2023/06/24 12:55:08;;;;;;;5.57;3.78;;;24.90;94.90;;;;;;4931323;29;20039;-79
2023/06/24 12:57:54;;;;;;;6.78;4.10;;;24.90;94.80;;;;;;4916113;29;20066;-79
2023/06/24 13:00:40;;;;;;;9.73;4.05;;;25.00;95.40;;;;;;4915076;29;20051;-79
2023/06/24 13:03:26;;;;;;;6.45;4.05;;;24.90;94.70;;;;;;4919350;29;20043;-79
2023/06/24 13:06:14;;;;;;;6.93;4.45;;;24.70;94.80;;;;;;4913488;29;20039;-79
2023/06/24 13:08:59;;;;;;;7.13;3.58;;;24.70;95.00;;;;;;4905844;29;20122;-79
2023/06/24 13:11:46;;;;;;;5.63;3.42;;;24.90;95.40;;;;;;4926622;29;20039;-79
2023/06/24 13:14:35;;;;;;;7.63;3.03;;;25.20;94.40;;;;;;4909787;29;20155;-79
2023/06/24 13:17:26;;;;;;;6.00;3.10;;;25.20;94.70;;;;;;4896468;29;20057;-79
2023/06/24 13:20:12;;;;;;;4.82;3.47;;;25.40;94.70;;;;;;4905596;29;20119;-79
2023/06/24 13:23:39;;;;;;;;;;;;;;;;;;;;;
2023/06/24 13:26:26;;;;;;;6.03;3.85;;;25.50;93.40;;;;;;4881646;29;20556;-80
2023/06/24 13:29:12;;;;;;;6.25;3.70;;;25.50;92.50;;;;;;4924196;29;20043;-79
2023/06/24 13:31:58;;;;;;;6.55;3.97;;;25.50;92.70;;;;;;4908847;29;20323;-78
2023/06/24 13:34:44;;;;;;;7.50;3.65;;;25.50;93.00;;;;;;4910388;29;20040;-79
2023/06/24 13:37:30;;;;;;;5.65;3.70;;;25.60;92.80;;;;;;4914425;29;20048;-79
2023/06/24 13:40:16;;;;;;;6.80;3.60;;;25.60;92.80;;;;;;4897816;29;20056;-79
2023/06/24 13:43:02;;;;;;;5.80;3.88;;;25.70;92.10;;;;;;4908873;29;20116;-79
2023/06/24 13:45:48;;;;;;;6.60;3.83;;;25.80;92.00;;;;;;4900401;29;20054;-80
2023/06/24 13:48:34;;;;;;;6.78;3.65;;;25.70;92.40;;;;;;4908028;29;20051;-79
2023/06/24 13:51:20;;;;;;;5.13;3.50;;;25.80;91.60;;;;;;4924107;29;20035;-79
2023/06/24 13:54:06;;;;;;;6.75;3.65;;;25.70;91.90;;;;;;4905511;29;20111;-79
2023/06/24 13:56:52;;;;;;;5.88;3.83;;;25.70;92.10;;;;;;4907900;29;20119;-79
2023/06/24 13:59:38;;;;;;;5.45;3.55;;;25.90;92.60;;;;;;4917794;29;20070;-78
2023/06/24 14:02:24;;;;;;;7.25;3.78;;;26.10;92.40;;;;;;4888042;29;20485;-79
2023/06/24 14:05:10;;;;;;;6.70;3.65;;;26.10;91.30;;;;;;4900823;29;20044;-79
2023/06/24 14:07:56;;;;;;;5.72;4.00;;;25.90;90.20;;;;;;4916535;29;20058;-78
2023/06/24 14:10:42;;;;;;;5.75;3.35;;;25.70;90.40;;;;;;4918159;29;20043;-78
2023/06/24 14:13:28;;;;;;;5.20;3.58;;;26.00;92.40;;;;;;4908055;29;20232;-79
2023/06/24 14:16:14;;;;;;;5.93;3.42;;;26.30;91.70;;;;;;4905694;29;20075;-79
2023/06/24 14:19:00;;;;;;;7.68;3.20;;;26.50;92.70;;;;;;4910231;29;20055;-79
2023/06/24 14:21:46;;;;;;;7.50;3.95;;;26.80;92.40;;;;;;4905041;29;20517;-79